Aktualna pogoda na lotniskach (dane METAR)

 

EPGD - Gdansk/Rebiechow, Poland
Distance from station: ENE 44km
Updated: Mon, 16-Jul-2018 12:30 CEST
Clear
Clear
 Wind from N
Wiatr: N 19 km/h
Temperatura: 24°C
Punkt Rosy: 15°C
Wilgotność: 57%
Ciśnienie: 1012 hPa
Ogólnie: Clear
Widzialność: greater than 10 km
2018/07/16 10:30 EPGD 161030Z 01010KT 340V040 CAVOK 24/15 Q1012
EPSC - Szczecin/Golenio, Poland
Distance from station: WSW 205km
Updated: Mon, 16-Jul-2018 12:30 CEST
Few Clouds
Few Clouds
 Wind from NNW
Wiatr: NNW 11 km/h
Temperatura: 26°C
Punkt Rosy: 14°C
Wilgotność: 48%
Ciśnienie: 1014 hPa
Zachmurzenie: Few Clouds
Widzialność: 10 km
Szczegóły zachm.: Few Clouds 1372 m
2018/07/16 10:30 EPSC 161030Z 33006KT 280V020 9999 FEW045 26/14 Q1014
 
EPPO - Poznan/Lawica, Poland
Distance from station: SSW 210km
Updated: Mon, 16-Jul-2018 12:30 CEST
Clear
Clear
 Wind from NW
Wiatr: NW 13 km/h
Temperatura: 25°C
Punkt Rosy: 12°C
Wilgotność: 44%
Ciśnienie: 1013 hPa
Ogólnie: Clear
Widzialność: greater than 10 km
2018/07/16 10:30 EPPO 161030Z 32007KT 280V350 CAVOK 25/12 Q1013
EPLL - Lodz/Lublinek, Poland
Distance from station: SSE 296km
Updated: Mon, 16-Jul-2018 12:30 CEST
Light rain, Showers, Mostly cloudy
Light rain, Showers, Mostly cloudy
 Wind from W
Wiatr: W 13 km/h
Temperatura: 17°C
Punkt Rosy: 16°C
Wilgotność: 94%
Ciśnienie: 1012 hPa
Ogólnie: Light rain, Showers
Zachmurzenie: Mostly Cloudy
Widzialność: 10 km
Szczegóły zachm.: Mostly Cloudy 1859 m
2018/07/16 10:30 EPLL 161030Z 27007KT 9999 -SHRA BKN061CB 17/16 Q1012
 
EPWA - Warsaw/Okecie, Poland
Distance from station: SE 307km
Updated: Mon, 16-Jul-2018 12:30 CEST
Partly Cloudy
Partly Cloudy
 Wind from NW
Wiatr: NW 22 km/h
Temperatura: 21°C
Punkt Rosy: 18°C
Wilgotność: 83%
Ciśnienie: 1009 hPa
Zachmurzenie: Partly Cloudy
Widzialność: 10 km
Szczegóły zachm.: Partly Cloudy 427 m
Partly Cloudy 701 m
2018/07/16 10:30 EPWA 161030Z 31012KT 9999 SCT014 SCT023CB 21/18 Q1009 TEMPO SHRA
EPWR - Wroclaw/Strachow, Poland
Distance from station: S 352km
Updated: Mon, 16-Jul-2018 12:30 CEST
Partly Cloudy
Partly Cloudy
 Wind from NNW
Wiatr: NNW 13 km/h
Temperatura: 24°C
Punkt Rosy: 14°C
Wilgotność: 54%
Ciśnienie: 1013 hPa
Zachmurzenie: Partly Cloudy
Widzialność: 10 km
Szczegóły zachm.: Partly Cloudy 1341 m
2018/07/16 10:30 EPWR 161030Z 33007KT 270V010 9999 SCT044 24/14 Q1013

Metar display script from Saratoga-Weather.org